Time;durP1;ratioP1;P1;durP2;ratioP2;P2;SDS_P1;SDS_P2;PMS_P1;PMS_P2;Temp;Humidity;BMP_temperature;BMP_pressure;BME280_temperature;BME280_humidity;BME280_pressure;Samples;Min_cycle;Max_cycle;Signal;HPM_P1;HPM_P2
2022/06/22 00:01:01;;;;;;;7.75;6.85;;;;;;;;;;5050685;28;20029;-68
2022/06/22 00:03:27;;;;;;;7.00;6.40;;;;;;;;;;5054452;28;20686;-68
2022/06/22 00:05:53;;;;;;;6.88;6.28;;;;;;;;;;5052288;28;20531;-69
2022/06/22 00:08:25;;;;;;;7.85;6.88;;;;;;;;;;5052609;28;20044;-68
2022/06/22 00:11:11;;;;;;;7.38;6.70;;;;;;;;;;5049491;28;20048;-68
2022/06/22 00:13:37;;;;;;;7.90;6.28;;;;;;;;;;5052522;28;20121;-68
2022/06/22 00:16:06;;;;;;;9.25;7.50;;;;;;;;;;5050222;28;20398;-68
2022/06/22 00:18:33;;;;;;;7.40;6.80;;;;;;;;;;5053303;28;20123;-68
2022/06/22 00:21:18;;;;;;;7.13;6.43;;;;;;;;;;5050899;28;20059;-68
2022/06/22 00:23:47;;;;;;;8.45;6.93;;;;;;;;;;5046332;28;20032;-68
2022/06/22 00:26:22;;;;;;;7.57;6.35;;;;;;;;;;5049172;28;20475;-68
2022/06/22 00:29:09;;;;;;;7.15;6.50;;;;;;;;;;5050127;28;20037;-68
2022/06/22 00:31:38;;;;;;;9.60;7.28;;;;;;;;;;5051249;28;20584;-69
2022/06/22 00:34:10;;;;;;;7.78;7.00;;;;;;;;;;5047581;28;20044;-69
2022/06/22 00:36:47;;;;;;;7.70;7.00;;;;;;;;;;5053478;28;20044;-69
2022/06/22 00:39:12;;;;;;;7.70;7.00;;;;;;;;;;5049060;28;20094;-69
2022/06/22 00:41:38;;;;;;;7.43;6.80;;;;;;;;;;5050488;28;20033;-69
2022/06/22 00:44:08;;;;;;;7.85;6.90;;;;;;;;;;5050890;28;20037;-69
2022/06/22 00:46:44;;;;;;;12.18;7.55;;;;;;;;;;5049636;28;20502;-69
2022/06/22 00:49:18;;;;;;;7.80;6.95;;;;;;;;;;5054320;28;20068;-68
2022/06/22 00:51:43;;;;;;;10.95;7.65;;;;;;;;;;5044708;28;20074;-69
2022/06/22 00:54:13;;;;;;;8.15;7.45;;;;;;;;;;5054710;28;20060;-69
2022/06/22 00:56:51;;;;;;;8.18;7.38;;;;;;;;;;5047646;28;20051;-69
2022/06/22 00:59:23;;;;;;;7.95;7.30;;;;;;;;;;5048785;28;20045;-69
2022/06/22 01:02:19;;;;;;;8.45;7.60;;;;;;;;;;5048492;28;20086;-68
2022/06/22 01:04:59;;;;;;;8.40;7.70;;;;;;;;;;5047851;28;20041;-68
2022/06/22 01:07:33;;;;;;;8.20;7.50;;;;;;;;;;5047838;28;20036;-69
2022/06/22 01:10:08;;;;;;;9.13;8.18;;;;;;;;;;5046509;28;20037;-68
2022/06/22 01:12:48;;;;;;;8.40;7.70;;;;;;;;;;5048151;28;20036;-68
2022/06/22 01:15:31;;;;;;;8.40;7.45;;;;;;;;;;5047705;28;20139;-68
2022/06/22 01:18:11;;;;;;;9.60;7.72;;;;;;;;;;5045702;28;20036;-69
2022/06/22 01:20:45;;;;;;;7.70;7.00;;;;;;;;;;5047787;28;20029;-68
2022/06/22 01:23:11;;;;;;;7.78;6.97;;;;;;;;;;5046301;28;20124;-68
2022/06/22 01:25:54;;;;;;;8.32;7.68;;;;;;;;;;5048470;28;20181;-68
2022/06/22 01:28:20;;;;;;;7.90;7.30;;;;;;;;;;5044523;28;20041;-68
2022/06/22 01:30:51;;;;;;;8.43;7.78;;;;;;;;;;5048162;28;20470;-68
2022/06/22 01:33:29;;;;;;;9.52;7.13;;;;;;;;;;5048591;28;20037;-68
2022/06/22 01:35:58;;;;;;;8.10;7.40;;;;;;;;;;5045621;28;20029;-68
2022/06/22 01:38:26;;;;;;;;;;;;;;;;;;5048473;28;20055;-68
2022/06/22 01:41:29;;;;;;;8.57;7.78;;;;;;;;;;5048256;28;19912;-68
2022/06/22 01:44:06;;;;;;;8.40;7.50;;;;;;;;;;5044975;28;20409;-68
2022/06/22 01:46:38;;;;;;;8.90;7.57;;;;;;;;;;5046919;28;20056;-68
2022/06/22 01:49:11;;;;;;;8.35;7.55;;;;;;;;;;5048216;28;20381;-69
2022/06/22 01:51:47;;;;;;;8.73;8.02;;;;;;;;;;5044890;28;20068;-69
2022/06/22 01:54:31;;;;;;;8.93;8.13;;;;;;;;;;5045846;28;20033;-68
2022/06/22 01:57:09;;;;;;;8.70;8.00;;;;;;;;;;5047012;28;20032;-68
2022/06/22 01:59:46;;;;;;;9.60;7.88;;;;;;;;;;5046368;28;20566;-68
2022/06/22 02:02:21;;;;;;;8.82;8.13;;;;;;;;;;5044176;28;20112;-68
2022/06/22 02:04:57;;;;;;;8.30;7.50;;;;;;;;;;5046754;28;20032;-68
2022/06/22 02:07:45;;;;;;;8.65;7.93;;;;;;;;;;5045228;28;20035;-68
2022/06/22 02:10:45;;;;;;;8.63;7.90;;;;;;;;;;5035795;28;20454;-68
2022/06/22 02:13:41;;;;;;;9.25;8.27;;;;;;;;;;5042897;28;20047;-68
2022/06/22 02:16:37;;;;;;;9.75;8.63;;;;;;;;;;5047077;28;20040;-69
2022/06/22 02:19:02;;;;;;;9.27;7.82;;;;;;;;;;5041924;28;21016;-68
2022/06/22 02:21:44;;;;;;;8.55;7.70;;;;;;;;;;5047132;28;20029;-68
2022/06/22 02:24:13;;;;;;;8.02;7.30;;;;;;;;;;5045072;28;20071;-68
2022/06/22 02:26:41;;;;;;;11.32;7.40;;;;;;;;;;5047302;28;20116;-69
2022/06/22 02:29:08;;;;;;;8.02;7.30;;;;;;;;;;5045545;28;20041;-68
2022/06/22 02:31:34;;;;;;;9.30;8.40;;;;;;;;;;5044597;28;20029;-70
2022/06/22 02:34:01;;;;;;;9.10;8.30;;;;;;;;;;5046341;28;20044;-69
2022/06/22 02:36:38;;;;;;;10.02;9.23;;;;;;;;;;5047198;28;20032;-69
2022/06/22 02:39:06;;;;;;;11.68;10.48;;;;;;;;;;5047369;28;20040;-69
2022/06/22 02:44:32;;;;;;;13.18;10.10;;;;;;;;;;5045464;28;20047;-69
2022/06/22 02:47:13;;;;;;;10.95;9.95;;;;;;;;;;5046595;28;20021;-69
2022/06/22 02:49:46;;;;;;;10.73;9.73;;;;;;;;;;5044937;28;20029;-68
2022/06/22 02:52:14;;;;;;;11.73;10.50;;;;;;;;;;5047247;28;20683;-68
2022/06/22 02:54:45;;;;;;;12.27;10.20;;;;;;;;;;5046697;28;20407;-68
2022/06/22 02:57:43;;;;;;;12.27;10.75;;;;;;;;;;5042456;28;20029;-68
2022/06/22 03:00:09;;;;;;;11.10;10.07;;;;;;;;;;5046408;28;20041;-68
2022/06/22 03:02:36;;;;;;;13.20;10.90;;;;;;;;;;5046116;28;20438;-68
2022/06/22 03:05:05;;;;;;;11.55;10.38;;;;;;;;;;5044103;28;20033;-67
2022/06/22 03:07:31;;;;;;;;;;;;;;;;;;5047589;28;20040;-67
2022/06/22 03:09:58;;;;;;;13.57;9.55;;;;;;;;;;5050552;28;19916;-67
2022/06/22 03:12:24;;;;;;;15.32;10.40;;;;;;;;;;5050186;28;20037;-67
2022/06/22 03:14:52;;;;;;;11.23;10.10;;;;;;;;;;5043679;28;20032;-67
2022/06/22 03:17:26;;;;;;;12.50;10.23;;;;;;;;;;5049937;28;20045;-67
2022/06/22 03:19:59;;;;;;;11.90;10.70;;;;;;;;;;5047384;28;20064;-67
2022/06/22 03:22:39;;;;;;;13.30;10.45;;;;;;;;;;5051644;28;20073;-66
2022/06/22 03:25:15;;;;;;;12.98;10.32;;;;;;;;;;5051280;28;20033;-66
2022/06/22 03:27:46;;;;;;;10.45;9.43;;;;;;;;;;5050234;28;20068;-66
2022/06/22 03:30:20;;;;;;;11.85;9.63;;;;;;;;;;5049160;28;20052;-67
2022/06/22 03:33:09;;;;;;;10.73;9.82;;;;;;;;;;5049064;28;20036;-67
2022/06/22 03:35:56;;;;;;;12.35;9.18;;;;;;;;;;5049257;28;20037;-67
2022/06/22 03:38:41;;;;;;;10.90;9.80;;;;;;;;;;5047553;28;20053;-67
2022/06/22 03:41:17;;;;;;;10.20;9.25;;;;;;;;;;5046472;28;20067;-66
2022/06/22 03:43:51;;;;;;;11.07;10.13;;;;;;;;;;5048510;28;20028;-67
2022/06/22 03:46:24;;;;;;;11.43;10.13;;;;;;;;;;5047479;28;20033;-66
2022/06/22 03:49:05;;;;;;;11.07;10.05;;;;;;;;;;5045043;28;20051;-67
2022/06/22 03:51:40;;;;;;;12.45;10.10;;;;;;;;;;5048491;28;20041;-66
2022/06/22 03:54:17;;;;;;;11.43;10.23;;;;;;;;;;5045607;28;20025;-67
2022/06/22 03:56:53;;;;;;;10.27;9.30;;;;;;;;;;5048944;28;20079;-67
2022/06/22 03:59:19;;;;;;;10.60;9.27;;;;;;;;;;5045887;28;20075;-66
2022/06/22 04:01:45;;;;;;;12.43;8.77;;;;;;;;;;5049278;28;20040;-66
2022/06/22 04:04:11;;;;;;;10.27;9.27;;;;;;;;;;5048861;28;20065;-67
2022/06/22 04:06:42;;;;;;;10.55;9.50;;;;;;;;;;5046655;28;20511;-67
2022/06/22 04:09:21;;;;;;;11.35;10.35;;;;;;;;;;5048422;28;20581;-66
2022/06/22 04:11:53;;;;;;;;;;;;;;;;;;5044362;28;20037;-67
2022/06/22 04:14:43;;;;;;;11.18;9.93;;;;;;;;;;5046956;28;20327;-67
2022/06/22 04:17:16;;;;;;;12.13;10.07;;;;;;;;;;5045866;28;20036;-67
2022/06/22 04:19:47;;;;;;;13.68;10.50;;;;;;;;;;5042423;28;20563;-67
2022/06/22 04:22:20;;;;;;;14.02;9.85;;;;;;;;;;5048005;28;20067;-67
2022/06/22 04:25:06;;;;;;;12.65;10.43;;;;;;;;;;5048586;28;20537;-67
2022/06/22 04:27:38;;;;;;;10.85;9.70;;;;;;;;;;5060517;28;20521;-67
2022/06/22 04:30:21;;;;;;;11.05;8.82;;;;;;;;;;5047694;28;20036;-67
2022/06/22 04:33:07;;;;;;;13.23;9.55;;;;;;;;;;5047178;28;20033;-66
2022/06/22 04:36:05;;;;;;;11.57;9.23;;;;;;;;;;5047752;28;20045;-67
2022/06/22 04:38:54;;;;;;;10.52;9.00;;;;;;;;;;5005868;28;20057;-67
2022/06/22 04:41:32;;;;;;;10.48;9.30;;;;;;;;;;5005158;28;20842;-67
2022/06/22 04:44:03;;;;;;;11.48;9.07;;;;;;;;;;5005048;28;20046;-67
2022/06/22 04:46:32;;;;;;;9.50;8.48;;;;;;;;;;5009305;28;20036;-67
2022/06/22 04:49:01;;;;;;;;;;;;;;;;;;5007439;28;20045;-67
2022/06/22 04:51:33;;;;;;;13.43;9.45;;;;;;;;;;5005003;28;19924;-67
2022/06/22 04:54:07;;;;;;;11.23;10.07;;;;;;;;;;5011565;28;20215;-67
2022/06/22 04:56:38;;;;;;;11.35;10.25;;;;;;;;;;5005551;28;20049;-67
2022/06/22 04:59:07;;;;;;;13.77;9.88;;;;;;;;;;5003717;28;20041;-67
2022/06/22 05:01:48;;;;;;;11.18;10.13;;;;;;;;;;5008149;28;20802;-67
2022/06/22 05:04:22;;;;;;;11.63;10.63;;;;;;;;;;5003920;28;20095;-67
2022/06/22 05:07:23;;;;;;;13.27;10.63;;;;;;;;;;5005616;28;20124;-67
2022/06/22 05:10:00;;;;;;;11.85;10.23;;;;;;;;;;4993184;28;20100;-67
2022/06/22 05:12:29;;;;;;;12.18;10.40;;;;;;;;;;5006898;28;20435;-67
2022/06/22 05:14:57;;;;;;;13.90;11.20;;;;;;;;;;5029697;28;20069;-66
2022/06/22 05:17:34;;;;;;;13.38;10.68;;;;;;;;;;5051245;28;20396;-66
2022/06/22 05:20:11;;;;;;;12.40;10.15;;;;;;;;;;5051556;28;20044;-66
2022/06/22 05:22:37;;;;;;;12.05;10.60;;;;;;;;;;5050919;28;20064;-66
2022/06/22 05:25:05;;;;;;;12.55;10.43;;;;;;;;;;5049348;28;20060;-66
2022/06/22 05:27:39;;;;;;;11.32;9.57;;;;;;;;;;5055808;28;20051;-66
2022/06/22 05:30:07;;;;;;;11.88;10.70;;;;;;;;;;5050581;28;20032;-66
2022/06/22 05:32:39;;;;;;;11.80;10.90;;;;;;;;;;5051332;28;20037;-66
2022/06/22 05:35:15;;;;;;;11.50;10.32;;;;;;;;;;5053687;28;20031;-66
2022/06/22 05:37:45;;;;;;;11.02;10.10;;;;;;;;;;5046269;28;20036;-66
2022/06/22 05:40:12;;;;;;;11.63;10.23;;;;;;;;;;5047941;28;20106;-66
2022/06/22 05:42:38;;;;;;;10.85;9.85;;;;;;;;;;5043978;28;20047;-66
2022/06/22 05:45:15;;;;;;;12.82;10.50;;;;;;;;;;5046934;28;20409;-67
2022/06/22 05:47:43;;;;;;;12.65;10.50;;;;;;;;;;5047616;28;20033;-66
2022/06/22 05:50:30;;;;;;;13.35;11.10;;;;;;;;;;5045180;28;20053;-66
2022/06/22 05:53:01;;;;;;;14.48;11.15;;;;;;;;;;5046160;28;20033;-66
2022/06/22 05:55:38;;;;;;;13.25;11.27;;;;;;;;;;5046828;28;20052;-66
2022/06/22 05:58:28;;;;;;;11.60;10.27;;;;;;;;;;5044710;28;20032;-66
2022/06/22 06:00:58;;;;;;;11.48;10.30;;;;;;;;;;5047723;28;20078;-67
2022/06/22 06:03:30;;;;;;;12.32;11.15;;;;;;;;;;5047951;28;20041;-66
2022/06/22 06:06:01;;;;;;;12.85;10.50;;;;;;;;;;5045170;28;20068;-66
2022/06/22 06:08:37;;;;;;;11.98;10.85;;;;;;;;;;5046260;28;20041;-66
2022/06/22 06:11:04;;;;;;;13.10;11.27;;;;;;;;;;5047046;28;20396;-66
2022/06/22 06:13:38;;;;;;;12.57;11.32;;;;;;;;;;5046455;28;20556;-66
2022/06/22 06:16:11;;;;;;;17.48;12.15;;;;;;;;;;5044817;28;20539;-66
2022/06/22 06:18:41;;;;;;;14.52;12.25;;;;;;;;;;5047114;28;20041;-66
2022/06/22 06:21:12;;;;;;;15.30;12.38;;;;;;;;;;5047031;28;20033;-66
2022/06/22 06:23:40;;;;;;;14.13;12.65;;;;;;;;;;5043743;28;20037;-66
2022/06/22 06:29:28;;;;;;;15.15;12.20;;;;;;;;;;5042991;28;20037;-66
2022/06/22 06:31:53;;;;;;;13.20;11.65;;;;;;;;;;5045638;28;20038;-66
2022/06/22 06:34:25;;;;;;;14.15;12.75;;;;;;;;;;5046224;28;20045;-66
2022/06/22 06:37:13;;;;;;;14.18;12.82;;;;;;;;;;5039921;28;20025;-66
2022/06/22 06:39:44;;;;;;;16.50;12.40;;;;;;;;;;5045584;28;20051;-66
2022/06/22 06:42:26;;;;;;;12.27;11.05;;;;;;;;;;5044700;28;20029;-66
2022/06/22 06:44:53;;;;;;;12.25;11.05;;;;;;;;;;5049079;28;20422;-66
2022/06/22 06:47:33;;;;;;;13.05;11.68;;;;;;;;;;5047249;28;20175;-66
2022/06/22 06:50:17;;;;;;;12.90;11.13;;;;;;;;;;5050392;28;20094;-67
2022/06/22 06:52:48;;;;;;;12.52;11.27;;;;;;;;;;5050548;28;20086;-67
2022/06/22 06:55:13;;;;;;;13.57;11.32;;;;;;;;;;5050721;28;20090;-67
2022/06/22 06:57:54;;;;;;;12.63;11.43;;;;;;;;;;5047185;28;20033;-67
2022/06/22 07:00:20;;;;;;;12.77;11.45;;;;;;;;;;5049544;28;20514;-67
2022/06/22 07:02:45;;;;;;;12.77;11.70;;;;;;;;;;5050760;28;20025;-67
2022/06/22 07:05:17;;;;;;;14.38;11.55;;;;;;;;;;5047757;28;20036;-67
2022/06/22 07:07:50;;;;;;;13.60;12.10;;;;;;;;;;5050405;28;20125;-67
2022/06/22 07:10:22;;;;;;;13.20;11.98;;;;;;;;;;5053513;28;20044;-67
2022/06/22 07:12:55;;;;;;;15.27;12.88;;;;;;;;;;5055980;28;20033;-67
2022/06/22 07:15:24;;;;;;;20.75;12.27;;;;;;;;;;5051744;28;20033;-67
2022/06/22 07:17:54;;;;;;;16.92;14.18;;;;;;;;;;5052399;28;20025;-67
2022/06/22 07:20:28;;;;;;;14.88;13.25;;;;;;;;;;5050385;28;20399;-67
2022/06/22 07:23:01;;;;;;;15.82;13.25;;;;;;;;;;5050065;28;20028;-67
2022/06/22 07:25:45;;;;;;;15.77;13.48;;;;;;;;;;5048488;28;20040;-67
2022/06/22 07:28:21;;;;;;;15.52;13.95;;;;;;;;;;5047204;28;20554;-67
2022/06/22 07:31:15;;;;;;;16.80;13.90;;;;;;;;;;5049712;28;20028;-67
2022/06/22 07:33:51;;;;;;;14.65;13.20;;;;;;;;;;5046783;28;20085;-66
2022/06/22 07:36:28;;;;;;;16.35;14.63;;;;;;;;;;5050404;28;20029;-67
2022/06/22 07:39:12;;;;;;;17.33;14.32;;;;;;;;;;5049950;28;20071;-67
2022/06/22 07:41:37;;;;;;;17.08;14.23;;;;;;;;;;5048446;28;20039;-67
2022/06/22 07:44:13;;;;;;;14.88;13.13;;;;;;;;;;5049343;28;20025;-67
2022/06/22 07:46:52;;;;;;;16.83;12.23;;;;;;;;;;5049919;28;20455;-67
2022/06/22 07:49:30;;;;;;;16.02;13.73;;;;;;;;;;5045989;28;20122;-67
2022/06/22 07:51:58;;;;;;;14.80;13.30;;;;;;;;;;5048255;28;20040;-67
2022/06/22 07:54:32;;;;;;;15.90;13.95;;;;;;;;;;5048591;28;20294;-67
2022/06/22 07:57:05;;;;;;;20.83;13.25;;;;;;;;;;5046779;28;20033;-67
2022/06/22 07:59:37;;;;;;;15.45;13.13;;;;;;;;;;5048299;28;20047;-67
2022/06/22 08:02:11;;;;;;;15.23;13.45;;;;;;;;;;5049728;28;20565;-68
2022/06/22 08:04:42;;;;;;;18.40;14.18;;;;;;;;;;5049276;28;20048;-67
2022/06/22 08:07:19;;;;;;;14.52;12.85;;;;;;;;;;5048233;28;20527;-67
2022/06/22 08:10:08;;;;;;;14.50;11.95;;;;;;;;;;5049098;28;20064;-67
2022/06/22 08:12:40;;;;;;;14.77;12.40;;;;;;;;;;5049867;28;20108;-67
2022/06/22 08:15:12;;;;;;;16.80;12.45;;;;;;;;;;5048775;28;20496;-67
2022/06/22 08:17:50;;;;;;;15.20;12.13;;;;;;;;;;5047797;28;20076;-67
2022/06/22 08:20:20;;;;;;;16.05;11.93;;;;;;;;;;5048205;28;20040;-67
2022/06/22 08:22:48;;;;;;;13.48;11.63;;;;;;;;;;5049262;28;20090;-67
2022/06/22 08:25:17;;;;;;;14.77;12.25;;;;;;;;;;5047000;28;20672;-67
2022/06/22 08:27:43;;;;;;;13.98;11.70;;;;;;;;;;5049280;28;20029;-67
2022/06/22 08:30:10;;;;;;;15.45;12.23;;;;;;;;;;5048770;28;20127;-67
2022/06/22 08:33:03;;;;;;;13.57;11.98;;;;;;;;;;5049121;28;20060;-67
2022/06/22 08:35:42;;;;;;;12.85;11.65;;;;;;;;;;5045283;28;20036;-67
2022/06/22 08:38:15;;;;;;;14.50;12.02;;;;;;;;;;5046639;28;20119;-67
2022/06/22 08:40:59;;;;;;;13.38;12.07;;;;;;;;;;5047476;28;20064;-67
2022/06/22 08:43:58;;;;;;;12.57;11.48;;;;;;;;;;5048280;28;20484;-67
2022/06/22 08:46:36;;;;;;;18.75;12.10;;;;;;;;;;5047691;28;20032;-67
2022/06/22 08:49:22;;;;;;;15.82;12.60;;;;;;;;;;5045108;28;20462;-67
2022/06/22 08:52:11;;;;;;;13.80;12.43;;;;;;;;;;5047483;28;20118;-67
2022/06/22 08:55:01;;;;;;;14.23;12.23;;;;;;;;;;5048126;28;20078;-67
2022/06/22 08:57:30;;;;;;;16.48;12.38;;;;;;;;;;5051484;28;20033;-67
2022/06/22 09:00:05;;;;;;;18.58;13.20;;;;;;;;;;5046019;28;20037;-67
2022/06/22 09:02:55;;;;;;;14.70;13.05;;;;;;;;;;5047871;28;20522;-68
2022/06/22 09:05:59;;;;;;;18.48;13.07;;;;;;;;;;5043443;28;20120;-67
2022/06/22 09:08:54;;;;;;;13.32;11.93;;;;;;;;;;5046755;28;20029;-67
2022/06/22 09:11:40;;;;;;;12.63;11.32;;;;;;;;;;5045561;28;20397;-67
2022/06/22 09:14:20;;;;;;;12.65;11.35;;;;;;;;;;5041609;28;20036;-67
2022/06/22 09:17:07;;;;;;;17.65;12.98;;;;;;;;;;5044961;28;20107;-67
2022/06/22 09:19:42;;;;;;;15.07;11.23;;;;;;;;;;5047587;28;20204;-67
2022/06/22 09:22:49;;;;;;;16.70;11.93;;;;;;;;;;5045790;28;20040;-67
2022/06/22 09:25:20;;;;;;;18.70;12.50;;;;;;;;;;5031735;28;20098;-67
2022/06/22 09:28:10;;;;;;;17.02;13.30;;;;;;;;;;5046478;28;20039;-67
2022/06/22 09:31:03;;;;;;;16.15;12.75;;;;;;;;;;5047904;28;20446;-67
2022/06/22 09:33:53;;;;;;;20.73;12.90;;;;;;;;;;5046801;28;20115;-67
2022/06/22 09:36:45;;;;;;;15.93;12.27;;;;;;;;;;5046466;28;20045;-67
2022/06/22 09:39:29;;;;;;;14.23;12.00;;;;;;;;;;5046503;28;20051;-67
2022/06/22 09:42:01;;;;;;;19.02;12.63;;;;;;;;;;5046823;28;20041;-67
2022/06/22 09:44:29;;;;;;;16.55;12.73;;;;;;;;;;5046818;28;20458;-67
2022/06/22 09:47:21;;;;;;;13.80;12.00;;;;;;;;;;5046264;28;20029;-67
2022/06/22 09:50:03;;;;;;;13.65;12.30;;;;;;;;;;5046644;28;20064;-66
2022/06/22 09:52:53;;;;;;;17.55;12.05;;;;;;;;;;5046920;28;20036;-67
2022/06/22 09:58:40;;;;;;;13.75;12.20;;;;;;;;;;5044711;28;20047;-67
2022/06/22 10:01:26;;;;;;;13.18;11.85;;;;;;;;;;5047059;28;20036;-67
2022/06/22 10:04:14;;;;;;;13.32;11.95;;;;;;;;;;5047159;28;20542;-67
2022/06/22 10:06:49;;;;;;;13.20;11.68;;;;;;;;;;5023918;28;20143;-67
2022/06/22 10:09:20;;;;;;;13.75;11.82;;;;;;;;;;5043942;28;20094;-67
2022/06/22 10:12:02;;;;;;;13.77;11.30;;;;;;;;;;5044549;28;20147;-67
2022/06/22 10:14:44;;;;;;;12.38;10.50;;;;;;;;;;5042020;28;20128;-67
2022/06/22 10:17:38;;;;;;;13.25;11.07;;;;;;;;;;5044598;28;20036;-67
2022/06/22 10:20:14;;;;;;;15.68;12.55;;;;;;;;;;5044892;28;20082;-67
2022/06/22 10:22:42;;;;;;;14.90;12.50;;;;;;;;;;5046679;28;20028;-67
2022/06/22 10:25:31;;;;;;;15.88;11.95;;;;;;;;;;5043134;28;20554;-67
2022/06/22 10:28:22;;;;;;;16.52;11.40;;;;;;;;;;5045848;28;20484;-67
2022/06/22 10:31:07;;;;;;;12.80;11.40;;;;;;;;;;5046666;28;20029;-67
2022/06/22 10:33:53;;;;;;;14.93;10.98;;;;;;;;;;5043928;28;20060;-66
2022/06/22 10:36:24;;;;;;;13.68;11.07;;;;;;;;;;5046500;28;20503;-66
2022/06/22 10:39:09;;;;;;;14.52;12.38;;;;;;;;;;5046967;28;20055;-68
2022/06/22 10:45:20;;;;;;;16.20;13.02;;;;;;;;;;5046835;28;20041;-68
2022/06/22 10:47:52;;;;;;;;;;;;;;;;;;5047951;28;20040;-65
2022/06/22 10:50:23;;;;;;;14.73;13.23;;;;;;;;;;5044912;28;19921;-67
2022/06/22 10:53:38;;;;;;;15.50;13.32;;;;;;;;;;5046303;28;20577;-67
2022/06/22 10:56:48;;;;;;;15.10;13.43;;;;;;;;;;5045877;28;20029;-67
2022/06/22 10:59:29;;;;;;;15.18;13.57;;;;;;;;;;5042853;28;20056;-67
2022/06/22 11:02:32;;;;;;;17.45;13.88;;;;;;;;;;5044643;28;20037;-67
2022/06/22 11:05:35;;;;;;;15.35;13.73;;;;;;;;;;5042750;28;20056;-68
2022/06/22 11:08:28;;;;;;;17.88;14.82;;;;;;;;;;5043444;28;20465;-68
2022/06/22 11:11:31;;;;;;;16.63;14.93;;;;;;;;;;5045970;28;20495;-67
2022/06/22 11:14:34;;;;;;;17.55;14.65;;;;;;;;;;5047187;28;20029;-68
2022/06/22 11:17:11;;;;;;;17.73;13.65;;;;;;;;;;5045332;28;20029;-68
2022/06/22 11:19:52;;;;;;;14.43;12.75;;;;;;;;;;5045583;28;20028;-67
2022/06/22 11:22:40;;;;;;;13.20;11.82;;;;;;;;;;5047805;28;20075;-67
2022/06/22 11:32:11;;;;;;;11.77;10.70;;;;;;;;;;5050828;28;20273;-67
2022/06/22 11:34:59;;;;;;;13.07;11.40;;;;;;;;;;5046949;28;20032;-68
2022/06/22 11:37:47;;;;;;;13.55;12.25;;;;;;;;;;5050108;28;20063;-68
2022/06/22 11:40:43;;;;;;;14.25;12.85;;;;;;;;;;5050612;28;20063;-68
2022/06/22 11:43:27;;;;;;;15.27;12.77;;;;;;;;;;5053998;28;20037;-68
2022/06/22 11:46:10;;;;;;;15.15;12.65;;;;;;;;;;5050999;28;20044;-68
2022/06/22 11:48:56;;;;;;;14.98;13.43;;;;;;;;;;5052284;28;20051;-68
2022/06/22 11:51:37;;;;;;;14.35;12.77;;;;;;;;;;5051346;28;20113;-68
2022/06/22 11:54:22;;;;;;;14.20;12.70;;;;;;;;;;5045723;28;20040;-68
2022/06/22 11:57:01;;;;;;;15.20;13.13;;;;;;;;;;5050941;28;20088;-68
2022/06/22 12:00:01;;;;;;;17.38;12.60;;;;;;;;;;5050958;28;20029;-68
2022/06/22 12:02:38;;;;;;;15.90;13.60;;;;;;;;;;5047048;28;20399;-68
2022/06/22 12:05:25;;;;;;;14.23;12.75;;;;;;;;;;5049975;28;20342;-68
2022/06/22 12:08:10;;;;;;;14.60;13.07;;;;;;;;;;5048235;28;20040;-68
2022/06/22 12:10:45;;;;;;;12.70;11.45;;;;;;;;;;5050662;28;20572;-68
2022/06/22 12:13:27;;;;;;;13.68;10.45;;;;;;;;;;5046080;28;20040;-68
2022/06/22 12:16:27;;;;;;;10.82;9.45;;;;;;;;;;5048544;28;20041;-68
2022/06/22 12:19:20;;;;;;;16.55;9.13;;;;;;;;;;5043974;28;20044;-68
2022/06/22 12:22:08;;;;;;;13.98;8.52;;;;;;;;;;5046682;28;20037;-68
2022/06/22 12:25:01;;;;;;;11.63;8.55;;;;;;;;;;5048275;28;20511;-68
2022/06/22 12:27:38;;;;;;;11.38;8.88;;;;;;;;;;5049987;28;20025;-68
2022/06/22 12:30:13;;;;;;;13.10;8.65;;;;;;;;;;5047195;28;20159;-68
2022/06/22 12:32:49;;;;;;;11.70;8.82;;;;;;;;;;5049516;28;20041;-68
2022/06/22 12:35:36;;;;;;;8.35;7.47;;;;;;;;;;5049060;28;20025;-68
2022/06/22 12:38:20;;;;;;;15.03;8.20;;;;;;;;;;5047402;28;20037;-68
2022/06/22 12:40:57;;;;;;;11.70;7.72;;;;;;;;;;5049219;28;20028;-68
2022/06/22 12:43:55;;;;;;;13.13;7.90;;;;;;;;;;5049317;28;20094;-68
2022/06/22 12:46:39;;;;;;;9.83;8.27;;;;;;;;;;4976102;28;20093;-68
2022/06/22 12:49:08;;;;;;;13.07;8.25;;;;;;;;;;5041529;28;20508;-68
2022/06/22 12:51:40;;;;;;;14.60;8.30;;;;;;;;;;5047993;28;20069;-68
2022/06/22 12:54:20;;;;;;;9.30;8.00;;;;;;;;;;5043252;28;20120;-67
2022/06/22 12:57:04;;;;;;;10.27;8.30;;;;;;;;;;5044467;28;20029;-67
2022/06/22 12:59:36;;;;;;;15.32;8.48;;;;;;;;;;5046327;28;20029;-67
2022/06/22 13:02:05;;;;;;;11.70;7.90;;;;;;;;;;5046114;28;20503;-67
2022/06/22 13:04:35;;;;;;;13.65;7.78;;;;;;;;;;5048075;28;20132;-67
2022/06/22 13:07:04;;;;;;;11.45;7.72;;;;;;;;;;5049683;28;20040;-68
2022/06/22 13:09:32;;;;;;;11.82;7.95;;;;;;;;;;5047241;28;20261;-68
2022/06/22 13:12:02;;;;;;;12.63;7.45;;;;;;;;;;5047197;28;20037;-68
2022/06/22 13:14:34;;;;;;;11.07;7.60;;;;;;;;;;5054027;28;20028;-69
2022/06/22 13:17:25;;;;;;;14.48;7.85;;;;;;;;;;5047575;28;20047;-69
2022/06/22 13:19:56;;;;;;;10.25;7.50;;;;;;;;;;5048539;28;20051;-69
2022/06/22 13:22:33;;;;;;;11.95;7.28;;;;;;;;;;5046475;28;20040;-68
2022/06/22 13:25:20;;;;;;;11.32;7.88;;;;;;;;;;5046609;28;20507;-68
2022/06/22 13:28:03;;;;;;;18.05;7.68;;;;;;;;;;5048337;28;20516;-69
2022/06/22 13:30:42;;;;;;;14.80;7.10;;;;;;;;;;5044908;28;20049;-68
2022/06/22 13:33:25;;;;;;;11.15;7.05;;;;;;;;;;5045265;28;20086;-68
2022/06/22 13:36:00;;;;;;;13.23;6.93;;;;;;;;;;5058362;28;20040;-70
2022/06/22 13:38:38;;;;;;;16.75;7.20;;;;;;;;;;5040903;28;20080;-70
2022/06/22 13:41:31;;;;;;;11.30;7.32;;;;;;;;;;5045684;28;20036;-69
2022/06/22 13:44:13;;;;;;;13.07;7.22;;;;;;;;;;5044997;28;20064;-72
2022/06/22 13:46:38;;;;;;;16.70;7.13;;;;;;;;;;5044032;28;20523;-70
2022/06/22 13:49:25;;;;;;;13.45;6.47;;;;;;;;;;5045429;28;20024;-70
2022/06/22 13:52:22;;;;;;;10.85;7.03;;;;;;;;;;5045641;28;20488;-70
2022/06/22 13:55:34;;;;;;;11.32;6.57;;;;;;;;;;5043233;28;20028;-70
2022/06/22 13:58:35;;;;;;;11.48;6.93;;;;;;;;;;5001331;28;20057;-69
2022/06/22 14:01:10;;;;;;;10.70;6.63;;;;;;;;;;5002167;28;20784;-69
2022/06/22 14:03:39;;;;;;;9.57;6.50;;;;;;;;;;4993412;28;20030;-68
2022/06/22 14:06:23;;;;;;;;;;;;;;;;;;4997266;28;20044;-68
2022/06/22 14:09:00;;;;;;;10.13;6.90;;;;;;;;;;5000042;28;19924;-69
2022/06/22 14:11:35;;;;;;;11.65;6.90;;;;;;;;;;5003372;28;20081;-70
2022/06/22 14:14:19;;;;;;;12.45;7.70;;;;;;;;;;5005269;28;20416;-69
2022/06/22 14:16:54;;;;;;;14.55;7.25;;;;;;;;;;5010159;28;20056;-69
2022/06/22 14:19:43;;;;;;;11.23;7.28;;;;;;;;;;5002254;28;20033;-69
2022/06/22 14:22:19;;;;;;;;;;;;;;;;;;5002966;28;20125;-69
2022/06/22 14:24:46;;;;;;;15.23;6.85;;;;;;;;;;5004592;28;19921;-68
2022/06/22 14:27:48;;;;;;;17.27;6.28;;;;;;;;;;4998340;28;20053;-69
2022/06/22 14:30:19;;;;;;;11.32;6.80;;;;;;;;;;5006683;28;20544;-69
2022/06/22 14:33:04;;;;;;;12.35;6.85;;;;;;;;;;5023294;28;20056;-68
2022/06/22 14:35:52;;;;;;;10.00;6.90;;;;;;;;;;5044538;28;20039;-68
2022/06/22 14:38:23;;;;;;;16.05;7.38;;;;;;;;;;5046213;28;20087;-68
2022/06/22 14:41:03;;;;;;;14.38;7.05;;;;;;;;;;5041710;28;20032;-68
2022/06/22 14:43:44;;;;;;;13.70;7.82;;;;;;;;;;5045092;28;20041;-68
2022/06/22 14:46:36;;;;;;;11.38;7.43;;;;;;;;;;5046680;28;20025;-68
2022/06/22 14:49:15;;;;;;;12.98;7.43;;;;;;;;;;5047282;28;20164;-69
2022/06/22 14:51:59;;;;;;;12.57;6.90;;;;;;;;;;5043966;28;20057;-68
2022/06/22 14:54:43;;;;;;;15.38;7.18;;;;;;;;;;5045634;28;20037;-69
2022/06/22 14:57:19;;;;;;;12.05;7.72;;;;;;;;;;5046917;28;20037;-69
2022/06/22 15:00:18;;;;;;;13.70;7.47;;;;;;;;;;5046069;28;20478;-68
2022/06/22 15:02:53;;;;;;;12.70;7.28;;;;;;;;;;5042759;28;20114;-69
2022/06/22 15:05:32;;;;;;;13.32;7.15;;;;;;;;;;5051161;28;20393;-69
2022/06/22 15:08:16;;;;;;;;;;;;;;;;;;5048464;28;20044;-69
2022/06/22 15:10:48;;;;;;;16.52;7.38;;;;;;;;;;5050414;28;19916;-69
2022/06/22 15:13:29;;;;;;;14.30;7.55;;;;;;;;;;5050574;28;20601;-69
2022/06/22 15:15:54;;;;;;;9.82;6.85;;;;;;;;;;5050672;28;20037;-70
2022/06/22 15:18:46;;;;;;;13.30;7.55;;;;;;;;;;5047461;28;20480;-69
2022/06/22 15:21:28;;;;;;;11.90;7.20;;;;;;;;;;5047959;28;20083;-69
2022/06/22 15:24:00;;;;;;;12.95;7.03;;;;;;;;;;5050049;28;20124;-69
2022/06/22 15:26:36;;;;;;;15.00;7.70;;;;;;;;;;5049007;28;20039;-68
2022/06/22 15:29:19;;;;;;;17.00;7.90;;;;;;;;;;5049403;28;20033;-69
2022/06/22 15:31:52;;;;;;;11.13;7.50;;;;;;;;;;5050306;28;20091;-70
2022/06/22 15:34:38;;;;;;;16.83;7.90;;;;;;;;;;5046505;28;20504;-69
2022/06/22 15:37:10;;;;;;;16.58;7.28;;;;;;;;;;5047783;28;20037;-69
2022/06/22 15:39:48;;;;;;;19.33;7.35;;;;;;;;;;5048940;28;20040;-68
2022/06/22 15:42:25;;;;;;;13.50;7.28;;;;;;;;;;5049139;28;20094;-68
2022/06/22 15:45:15;;;;;;;14.27;7.53;;;;;;;;;;5049223;28;20037;-68
2022/06/22 15:47:53;;;;;;;10.88;6.65;;;;;;;;;;5048931;28;20067;-68
2022/06/22 15:50:46;;;;;;;13.07;7.00;;;;;;;;;;5046889;28;20059;-68
2022/06/22 15:53:22;;;;;;;13.20;6.90;;;;;;;;;;5045899;28;20045;-68